| time (UTC) | temp F | wind direction | speed MPH | gust MPH | rain 1hr in | rain 24hr in | rain mn in | humidity % | barometer mb |
| 20260906165506 | 56 | 205 | 0.0 | 0.0 | 0.17 | 0.18 | 0.18 | 99 | 1019.3 |
| 20260906165001 | 57 | 195 | 1.0 | 2.0 | 0.00 | 0.15 | 0.15 | 99 | 1018.9 |
| 20260906164500 | 57 | 202 | 0.0 | 0.0 | 0.07 | 0.15 | 0.15 | 99 | 1018.9 |
| 20260906163957 | 57 | 192 | 3.0 | 3.0 | 0.07 | 0.15 | 0.15 | 99 | 1018.9 |
| 20260906163452 | 57 | 229 | 1.0 | 3.0 | 0.05 | 0.14 | 0.14 | 99 | 1019.3 |
| 20260906162950 | 57 | 220 | 0.0 | 0.0 | 0.05 | 0.14 | 0.14 | 99 | 1018.9 |
| 20260906162449 | 57 | 208 | 0.0 | 0.0 | 0.07 | 0.13 | 0.13 | 99 | 1018.6 |
| 20260906161943 | 57 | 198 | 0.0 | 0.0 | 0.07 | 0.13 | 0.13 | 99 | 1018.9 |
| 20260906161438 | 57 | 218 | 0.0 | 0.0 | 0.05 | 0.12 | 0.12 | 99 | 1018.9 |
| 20260906160937 | 57 | 212 | 0.0 | 0.0 | 0.05 | 0.12 | 0.12 | 99 | 1018.9 |
| 20260906160436 | 57 | 213 | 0.0 | 0.0 | 0.07 | 0.11 | 0.11 | 99 | 1018.9 |
| 20260906155934 | 57 | 203 | 0.0 | 0.0 | 0.07 | 0.11 | 0.11 | 99 | 1018.6 |
| 20260906155428 | 57 | 179 | 0.0 | 0.0 | 0.05 | 0.10 | 0.10 | 99 | 1018.9 |
| 20260906154925 | 57 | 215 | 0.0 | 0.0 | 0.05 | 0.10 | 0.10 | 99 | 1018.9 |
| 20260906154424 | 57 | 211 | 0.0 | 0.0 | 0.07 | 0.09 | 0.09 | 99 | 1018.9 |
| 20260906153923 | 57 | 221 | 0.0 | 0.0 | 0.14 | 0.09 | 0.09 | 99 | 1018.9 |
| 20260906153421 | 57 | 217 | 0.0 | 0.0 | 0.12 | 0.08 | 0.08 | 99 | 1018.9 |
| 20260906152917 | 57 | 217 | 0.0 | 0.0 | 0.12 | 0.07 | 0.07 | 99 | 1018.9 |
| 20260906152412 | 57 | 217 | 0.0 | 0.0 | 0.07 | 0.06 | 0.06 | 99 | 1018.9 |
| 20260906151911 | 57 | 200 | 0.0 | 0.0 | 0.05 | 0.05 | 0.05 | 99 | 1018.9 |
| 20260906151407 | 57 | 218 | 0.0 | 0.0 | 0.05 | 0.05 | 0.05 | 99 | 1018.9 |
| 20260906150902 | 57 | 209 | 0.0 | 0.0 | 0.00 | 0.04 | 0.04 | 99 | 1018.6 |
| 20260906150357 | 57 | 212 | 0.0 | 0.0 | 0.07 | 0.04 | 0.04 | 99 | 1018.6 |
| 20260906145857 | 57 | 212 | 0.0 | 0.0 | 0.07 | 0.04 | 0.04 | 99 | 1018.6 |
| 20260906145356 | 57 | 218 | 0.0 | 0.0 | 0.00 | 0.03 | 0.03 | 99 | 1018.6 |
| 20260906144851 | 57 | 206 | 0.0 | 0.0 | 0.00 | 0.03 | 0.03 | 99 | 1018.6 |
| 20260906144346 | 57 | 209 | 0.0 | 1.0 | 0.00 | 0.03 | 0.03 | 99 | 1018.6 |
| 20260906143840 | 57 | 209 | 0.0 | 0.0 | 0.05 | 0.03 | 0.03 | 99 | 1018.6 |
| 20260906143336 | 57 | 207 | 0.0 | 0.0 | 0.05 | 0.03 | 0.03 | 99 | 1018.6 |
| 20260906142832 | 57 | 203 | 0.0 | 0.0 | 0.00 | 0.02 | 0.02 | 99 | 1018.6 |
| 20260906142326 | 57 | 212 | 2.0 | 2.0 | 0.00 | 0.02 | 0.02 | 99 | 1018.2 |
| 20260906141820 | 57 | 206 | 0.0 | 1.0 | 0.00 | 0.02 | 0.02 | 99 | 1018.2 |
| 20260906141315 | 57 | 220 | 3.0 | 3.0 | 0.00 | 0.02 | 0.02 | 99 | 1018.6 |
| 20260906140813 | 57 | 204 | 0.0 | 0.0 | 0.07 | 0.02 | 0.02 | 98 | 1018.6 |
| 20260906140309 | 57 | 195 | 1.0 | 2.0 | 0.07 | 0.02 | 0.02 | 98 | 1018.6 |
| 20260906135807 | 57 | 191 | 0.0 | 0.0 | 0.00 | 0.01 | 0.01 | 98 | 1018.6 |
| 20260906135305 | 57 | 221 | 0.0 | 0.0 | 0.00 | 0.01 | 0.01 | 98 | 1018.2 |
| 20260906134757 | 57 | 219 | 0.0 | 0.0 | 0.00 | 0.01 | 0.01 | 98 | 1018.6 |
| 20260906134252 | 57 | 221 | 0.0 | 0.0 | 0.00 | 0.01 | 0.01 | 98 | 1018.2 |
| 20260906133748 | 57 | 260 | 1.0 | 2.0 | 0.00 | 0.01 | 0.01 | 98 | 1018.2 |
| 20260906133243 | 57 | 223 | 0.0 | 0.0 | 0.00 | 0.01 | 0.01 | 98 | 1018.2 |
| 20260906132738 | 57 | 222 | 0.0 | 0.0 | 0.05 | 0.01 | 0.01 | 98 | 1017.9 |
| 20260906132233 | 57 | 340 | 2.0 | 3.0 | 0.05 | 0.01 | 0.01 | 98 | 1017.9 |
| 20260906131730 | 57 | 209 | 0.0 | 0.0 | 0.00 | 0.00 | 0.00 | 98 | 1017.6 |
| 20260906131224 | 57 | 228 | 0.0 | 0.0 | 0.00 | 0.00 | 0.00 | 98 | 1017.6 |
| 20260906130719 | 57 | 240 | 0.0 | 1.0 | 0.00 | 0.00 | 0.00 | 98 | 1017.6 |
| 20260906130214 | 57 | 214 | 0.0 | 0.0 | 0.00 | 0.00 | 0.00 | 98 | 1017.6 |
| 20260906125713 | 57 | 217 | 0.0 | 1.0 | 0.00 | 0.00 | 0.00 | 98 | 1017.9 |
| 20260906125211 | 57 | 236 | 1.0 | 2.0 | 0.00 | 0.00 | 0.00 | 98 | 1017.9 |
| 20260906124707 | 57 | 216 | 0.0 | 0.0 | 0.00 | 0.00 | 0.00 | 98 | 1017.9 |
| 20260906124202 | 57 | 215 | 0.0 | 0.0 | 0.00 | 0.00 | 0.00 | 98 | 1017.9 |
| 20260906123701 | 57 | 205 | 0.0 | 0.0 | 0.00 | 0.00 | 0.00 | 98 | 1017.9 |
| 20260906123156 | 57 | 207 | 0.0 | 0.0 | 0.00 | 0.00 | 0.00 | 98 | 1017.9 |
| 20260906122655 | 57 | 203 | 0.0 | 0.0 | 0.00 | 0.00 | 0.00 | 98 | 1017.9 |
| 20260906122151 | 57 | 204 | 0.0 | 0.0 | 0.00 | 0.00 | 0.00 | 97 | 1018.2 |
| 20260906121647 | 57 | 212 | 0.0 | 0.0 | 0.00 | 0.00 | 0.00 | 97 | 1017.9 |
| 20260906121143 | 57 | 210 | 0.0 | 0.0 | 0.00 | 0.00 | 0.00 | 97 | 1018.2 |
| 20260906120639 | 57 | 220 | 0.0 | 0.0 | 0.00 | 0.00 | 0.00 | 97 | 1017.9 |
| 20260906120136 | 57 | 220 | 0.0 | 0.0 | 0.00 | 0.00 | 0.00 | 97 | 1017.9 |
| 20260906115631 | 57 | 220 | 0.0 | 0.0 | 0.00 | 0.00 | 0.00 | 97 | 1017.9 |
| 20260906115126 | 57 | 220 | 0.0 | 0.0 | 0.00 | 0.00 | 0.00 | 97 | 1017.9 |
| 20260906114620 | 57 | 220 | 0.0 | 0.0 | 0.00 | 0.00 | 0.00 | 97 | 1017.9 |
| 20260906114115 | 57 | 220 | 0.0 | 0.0 | 0.00 | 0.00 | 0.00 | 97 | 1017.6 |
| 20260906113614 | 57 | 220 | 0.0 | 0.0 | 0.00 | 0.00 | 0.00 | 97 | 1017.9 |
| 20260906113109 | 57 | 220 | 0.0 | 0.0 | 0.00 | 0.00 | 0.00 | 97 | 1017.9 |
| 20260906112609 | 57 | 220 | 0.0 | 0.0 | 0.00 | 0.00 | 0.00 | 96 | 1017.6 |
| 20260906112106 | 57 | 220 | 0.0 | 0.0 | 0.00 | 0.00 | 0.00 | 96 | 1017.9 |
| 20260906111605 | 57 | 220 | 0.0 | 0.0 | 0.00 | 0.00 | 0.00 | 96 | 1017.9 |
| 20260906111100 | 57 | 220 | 0.0 | 0.0 | 0.00 | 0.00 | 0.00 | 96 | 1017.9 |
| 20260906110600 | 57 | 220 | 0.0 | 0.0 | 0.00 | 0.00 | 0.00 | 96 | 1018.2 |
| 20260906110059 | 57 | 220 | 0.0 | 0.0 | 0.00 | 0.00 | 0.00 | 96 | 1017.6 |
| 20260906105554 | 57 | 220 | 0.0 | 0.0 | 0.00 | 0.00 | 0.00 | 96 | 1017.6 |
| 20260906105050 | 57 | 220 | 0.0 | 0.0 | 0.00 | 0.00 | 0.00 | 96 | 1018.2 |
| 20260906104549 | 57 | 220 | 0.0 | 0.0 | 0.00 | 0.00 | 0.00 | 96 | 1017.9 |
| 20260906104043 | 57 | 220 | 0.0 | 0.0 | 0.00 | 0.00 | 0.00 | 96 | 1017.9 |
| 20260906103541 | 57 | 220 | 0.0 | 0.0 | 0.00 | 0.00 | 0.00 | 96 | 1017.9 |
| 20260906103037 | 57 | 221 | 0.0 | 0.0 | 0.00 | 0.00 | 0.00 | 96 | 1017.6 |
| 20260906102537 | 57 | 221 | 0.0 | 0.0 | 0.00 | 0.00 | 0.00 | 96 | 1017.6 |
| 20260906102032 | 57 | 225 | 0.0 | 0.0 | 0.00 | 0.00 | 0.00 | 96 | 1017.9 |
| 20260906101527 | 57 | 223 | 0.0 | 0.0 | 0.00 | 0.00 | 0.00 | 96 | 1017.6 |
| 20260906101022 | 57 | 238 | 0.0 | 0.0 | 0.00 | 0.00 | 0.00 | 96 | 1017.6 |
| 20260906100518 | 57 | 230 | 0.0 | 1.0 | 0.00 | 0.00 | 0.00 | 96 | 1017.6 |
| 20260906100018 | 57 | 234 | 1.0 | 2.0 | 0.00 | 0.00 | 0.00 | 96 | 1017.6 |
| 20260906095512 | 57 | 228 | 1.0 | 2.0 | 0.00 | 0.00 | 0.00 | 96 | 1017.6 |
| 20260906095009 | 57 | 220 | 0.0 | 0.0 | 0.00 | 0.00 | 0.00 | 96 | 1017.6 |
| 20260906094507 | 57 | 218 | 0.0 | 0.0 | 0.00 | 0.00 | 0.00 | 96 | 1017.6 |
| 20260906094003 | 57 | 217 | 0.0 | 0.0 | 0.00 | 0.00 | 0.00 | 96 | 1017.9 |
| 20260906093459 | 57 | 217 | 0.0 | 0.0 | 0.00 | 0.00 | 0.00 | 96 | 1017.6 |
| 20260906092953 | 57 | 215 | 0.0 | 0.0 | 0.00 | 0.00 | 0.00 | 96 | 1017.6 |
| 20260906092448 | 57 | 218 | 0.0 | 0.0 | 0.00 | 0.00 | 0.00 | 96 | 1017.6 |
| 20260906091943 | 57 | 218 | 0.0 | 0.0 | 0.00 | 0.00 | 0.00 | 96 | 1017.6 |
| 20260906091439 | 57 | 215 | 0.0 | 0.0 | 0.00 | 0.00 | 0.00 | 96 | 1017.6 |
| 20260906090935 | 57 | 215 | 0.0 | 0.0 | 0.00 | 0.00 | 0.00 | 96 | 1017.6 |
| 20260906090430 | 57 | 218 | 0.0 | 0.0 | 0.00 | 0.00 | 0.00 | 96 | 1017.6 |
| 20260906085929 | 57 | 221 | 0.0 | 0.0 | 0.00 | 0.00 | 0.00 | 96 | 1017.2 |
| 20260906085429 | 57 | 217 | 0.0 | 0.0 | 0.00 | 0.00 | 0.00 | 96 | 1017.6 |
| 20260906084928 | 57 | 215 | 0.0 | 0.0 | 0.00 | 0.00 | 0.00 | 96 | 1017.6 |
| 20260906084423 | 57 | 212 | 0.0 | 0.0 | 0.00 | 0.00 | 0.00 | 96 | 1017.9 |
| 20260906083922 | 57 | 212 | 0.0 | 0.0 | 0.00 | 0.00 | 0.00 | 96 | 1017.6 |
| 20260906083418 | 57 | 213 | 0.0 | 0.0 | 0.00 | 0.00 | 0.00 | 96 | 1017.6 |
| 20260906082917 | 57 | 215 | 0.0 | 0.0 | 0.00 | 0.00 | 0.00 | 95 | 1017.6 |
| 20260906082413 | 57 | 216 | 0.0 | 0.0 | 0.00 | 0.00 | 0.00 | 95 | 1017.6 |
| 20260906081908 | 57 | 215 | 0.0 | 0.0 | 0.00 | 0.00 | 0.00 | 95 | 1017.6 |
| 20260906081403 | 57 | 215 | 0.0 | 0.0 | 0.00 | 0.00 | 0.00 | 95 | 1017.6 |
| 20260906080900 | 57 | 215 | 0.0 | 0.0 | 0.00 | 0.00 | 0.00 | 95 | 1017.6 |
| 20260906080356 | 57 | 215 | 0.0 | 0.0 | 0.00 | 0.00 | 0.00 | 95 | 1017.6 |
| 20260906075855 | 57 | 215 | 0.0 | 0.0 | 0.00 | 0.00 | 0.00 | 95 | 1017.6 |
| 20260906075350 | 57 | 213 | 0.0 | 0.0 | 0.00 | 0.00 | 0.00 | 95 | 1017.6 |
| 20260906074846 | 58 | 213 | 0.0 | 0.0 | 0.00 | 0.00 | 0.00 | 95 | 1017.9 |
| 20260906074345 | 58 | 214 | 0.0 | 0.0 | 0.00 | 0.00 | 0.00 | 95 | 1017.9 |
| 20260906073844 | 57 | 215 | 0.0 | 0.0 | 0.00 | 0.00 | 0.00 | 94 | 1017.6 |
| 20260906073339 | 58 | 213 | 0.0 | 0.0 | 0.00 | 0.00 | 0.00 | 94 | 1017.9 |
| 20260906072836 | 58 | 213 | 0.0 | 0.0 | 0.00 | 0.00 | 0.00 | 94 | 1017.9 |
| 20260906072326 | 57 | 213 | 0.0 | 0.0 | 0.00 | 0.00 | 0.00 | 94 | 1017.9 |
| 20260906071821 | 58 | 213 | 0.0 | 0.0 | 0.00 | 0.00 | 0.00 | 94 | 1017.9 |
| 20260906071316 | 58 | 213 | 0.0 | 0.0 | 0.00 | 0.00 | 0.00 | 94 | 1017.9 |
| 20260906070812 | 58 | 213 | 0.0 | 0.0 | 0.00 | 0.00 | 0.00 | 94 | 1017.6 |
| 20260906070308 | 58 | 213 | 0.0 | 0.0 | 0.00 | 0.00 | 0.00 | 94 | 1017.9 |
| 20260906065808 | 58 | 213 | 0.0 | 0.0 | 0.00 | 0.01 | 0.01 | 94 | 1017.9 |
| 20260906065305 | 58 | 215 | 0.0 | 0.0 | 0.00 | 0.01 | 0.01 | 94 | 1017.6 |
| 20260906064759 | 58 | 215 | 0.0 | 0.0 | 0.00 | 0.01 | 0.01 | 93 | 1017.6 |
| 20260906064254 | 58 | 216 | 0.0 | 0.0 | 0.00 | 0.01 | 0.01 | 93 | 1017.6 |
| 20260906063749 | 58 | 216 | 0.0 | 0.0 | 0.00 | 0.01 | 0.01 | 93 | 1017.6 |
| 20260906063245 | 58 | 216 | 0.0 | 0.0 | 0.00 | 0.01 | 0.01 | 93 | 1017.6 |
| 20260906062740 | 58 | 215 | 0.0 | 0.0 | 0.00 | 0.01 | 0.01 | 93 | 1017.6 |
| 20260906062239 | 58 | 216 | 0.0 | 0.0 | 0.00 | 0.01 | 0.01 | 93 | 1017.9 |
| 20260906061735 | 58 | 213 | 0.0 | 0.0 | 0.00 | 0.01 | 0.01 | 93 | 1017.9 |
| 20260906061231 | 58 | 213 | 0.0 | 0.0 | 0.00 | 0.01 | 0.01 | 93 | 1017.9 |
| 20260906060726 | 58 | 219 | 0.0 | 0.0 | 0.00 | 0.01 | 0.01 | 93 | 1017.6 |
| 20260906060223 | 58 | 219 | 0.0 | 0.0 | 0.00 | 0.01 | 0.01 | 93 | 1017.9 |
| 20260906055719 | 58 | 221 | 0.0 | 0.0 | 0.00 | 0.01 | 0.01 | 92 | 1017.9 |
| 20260906055214 | 58 | 216 | 0.0 | 0.0 | 0.00 | 0.01 | 0.01 | 92 | 1017.9 |
| 20260906054710 | 58 | 212 | 0.0 | 0.0 | 0.00 | 0.01 | 0.01 | 92 | 1018.2 |
| 20260906054210 | 58 | 212 | 0.0 | 0.0 | 0.00 | 0.01 | 0.01 | 92 | 1017.9 |
| 20260906053707 | 58 | 211 | 0.0 | 0.0 | 0.00 | 0.01 | 0.01 | 92 | 1017.9 |
| 20260906053201 | 58 | 211 | 0.0 | 0.0 | 0.00 | 0.01 | 0.01 | 92 | 1018.2 |
| 20260906052656 | 58 | 211 | 0.0 | 0.0 | 0.00 | 0.01 | 0.01 | 91 | 1017.9 |
| 20260906052153 | 58 | 212 | 0.0 | 0.0 | 0.00 | 0.01 | 0.01 | 91 | 1017.9 |
| 20260906051649 | 59 | 211 | 0.0 | 0.0 | 0.00 | 0.01 | 0.01 | 91 | 1017.9 |
| 20260906051149 | 59 | 211 | 0.0 | 0.0 | 0.00 | 0.01 | 0.01 | 90 | 1017.9 |
| 20260906050644 | 59 | 211 | 0.0 | 0.0 | 0.00 | 0.01 | 0.01 | 90 | 1018.2 |
| 20260906050139 | 59 | 211 | 0.0 | 0.0 | 0.00 | 0.01 | 0.01 | 90 | 1017.9 |
| 20260906045638 | 59 | 212 | 0.0 | 0.0 | 0.00 | 0.01 | 0.01 | 90 | 1018.2 |
| 20260906045133 | 59 | 214 | 0.0 | 0.0 | 0.00 | 0.01 | 0.01 | 90 | 1018.2 |
| 20260906044629 | 59 | 214 | 0.0 | 0.0 | 0.00 | 0.01 | 0.01 | 90 | 1018.2 |
| 20260906044124 | 59 | 215 | 0.0 | 0.0 | 0.00 | 0.01 | 0.01 | 89 | 1017.9 |
| 20260906043620 | 59 | 215 | 0.0 | 0.0 | 0.00 | 0.01 | 0.01 | 89 | 1018.2 |
| 20260906043116 | 60 | 215 | 0.0 | 0.0 | 0.00 | 0.01 | 0.01 | 88 | 1018.6 |
| 20260906042615 | 60 | 217 | 0.0 | 0.0 | 0.00 | 0.01 | 0.01 | 88 | 1018.2 |
| 20260906042109 | 60 | 215 | 0.0 | 0.0 | 0.00 | 0.01 | 0.01 | 87 | 1018.2 |
| 20260906041606 | 60 | 214 | 0.0 | 0.0 | 0.00 | 0.01 | 0.01 | 87 | 1018.2 |
| 20260906041100 | 60 | 215 | 0.0 | 0.0 | 0.00 | 0.01 | 0.01 | 86 | 1018.2 |
| 20260906040556 | 61 | 217 | 0.0 | 0.0 | 0.00 | 0.01 | 0.01 | 86 | 1017.9 |
| 20260906040051 | 61 | 219 | 0.0 | 0.0 | 0.00 | 0.01 | 0.01 | 85 | 1017.9 |
| 20260906035546 | 61 | 227 | 0.0 | 0.0 | 0.00 | 0.01 | 0.01 | 85 | 1018.2 |
| 20260906035042 | 61 | 224 | 0.0 | 0.0 | 0.00 | 0.01 | 0.01 | 85 | 1018.2 |
| 20260906034542 | 61 | 217 | 0.0 | 0.0 | 0.00 | 0.01 | 0.01 | 84 | 1018.2 |
| 20260906034037 | 62 | 219 | 0.0 | 0.0 | 0.00 | 0.01 | 0.01 | 83 | 1018.2 |
| 20260906033532 | 62 | 222 | 0.0 | 0.0 | 0.00 | 0.01 | 0.01 | 83 | 1017.9 |
| 20260906033027 | 62 | 233 | 0.0 | 0.0 | 0.00 | 0.01 | 0.01 | 83 | 1017.9 |
| 20260906032524 | 62 | 219 | 0.0 | 0.0 | 0.00 | 0.01 | 0.01 | 82 | 1017.9 |
| 20260906032024 | 62 | 227 | 0.0 | 0.0 | 0.00 | 0.01 | 0.01 | 82 | 1017.9 |
| 20260906031520 | 62 | 253 | 0.0 | 0.0 | 0.00 | 0.01 | 0.01 | 82 | 1017.9 |
| 20260906031009 | 63 | 226 | 0.0 | 0.0 | 0.00 | 0.01 | 0.01 | 81 | 1017.9 |
| 20260906030503 | 63 | 281 | 0.0 | 0.0 | 0.00 | 0.01 | 0.01 | 80 | 1017.9 |
| 20260906030003 | 63 | 244 | 0.0 | 0.0 | 0.00 | 0.01 | 0.01 | 80 | 1017.9 |
| 20260906025502 | 64 | 238 | 0.0 | 0.0 | 0.00 | 0.01 | 0.01 | 79 | 1017.9 |
| 20260906025001 | 64 | 227 | 0.0 | 0.0 | 0.00 | 0.01 | 0.01 | 79 | 1018.2 |
| 20260906024456 | 64 | 249 | 0.0 | 0.0 | 0.00 | 0.01 | 0.01 | 78 | 1017.9 |
| 20260906023955 | 64 | 253 | 0.0 | 0.0 | 0.00 | 0.01 | 0.01 | 78 | 1017.9 |
| 20260906023453 | 64 | 265 | 2.0 | 2.0 | 0.00 | 0.01 | 0.01 | 77 | 1018.2 |
| 20260906022953 | 65 | 227 | 0.0 | 0.0 | 0.00 | 0.01 | 0.01 | 76 | 1017.9 |
| 20260906022448 | 65 | 258 | 2.0 | 2.0 | 0.00 | 0.01 | 0.01 | 75 | 1017.9 |
| 20260906021943 | 65 | 300 | 0.0 | 0.0 | 0.00 | 0.01 | 0.01 | 75 | 1017.9 |
| 20260906021438 | 65 | 238 | 0.0 | 0.0 | 0.00 | 0.01 | 0.01 | 73 | 1017.9 |
| 20260906020938 | 65 | 246 | 2.0 | 2.0 | 0.00 | 0.01 | 0.01 | 73 | 1017.6 |
| 20260906020432 | 66 | 262 | 3.0 | 3.0 | 0.00 | 0.01 | 0.01 | 72 | 1017.9 |
| 20260906015926 | 66 | 253 | 0.0 | 0.0 | 0.00 | 0.01 | 0.01 | 72 | 1017.9 |
| 20260906015420 | 66 | 302 | 4.0 | 5.0 | 0.00 | 0.01 | 0.01 | 71 | 1017.9 |
| 20260906014914 | 66 | 231 | 3.0 | 5.0 | 0.00 | 0.01 | 0.01 | 71 | 1017.9 |
| 20260906014408 | 66 | 267 | 5.0 | 6.0 | 0.00 | 0.01 | 0.01 | 70 | 1018.2 |
| 20260906013905 | 66 | 283 | 6.0 | 7.0 | 0.00 | 0.01 | 0.01 | 70 | 1017.6 |
| 20260906013400 | 67 | 258 | 1.0 | 2.0 | 0.00 | 0.01 | 0.01 | 71 | 1017.9 |
| 20260906012855 | 67 | 260 | 0.0 | 1.0 | 0.00 | 0.01 | 0.01 | 71 | 1017.9 |
| 20260906012350 | 67 | 231 | 0.0 | 0.0 | 0.00 | 0.01 | 0.01 | 70 | 1017.9 |
| 20260906011850 | 67 | 245 | 0.0 | 0.0 | 0.00 | 0.01 | 0.01 | 70 | 1017.9 |
| 20260906011345 | 68 | 233 | 0.0 | 0.0 | 0.00 | 0.01 | 0.01 | 69 | 1018.2 |
| 20260906010841 | 68 | 252 | 3.0 | 3.0 | 0.00 | 0.01 | 0.01 | 69 | 1017.9 |
| 20260906010337 | 68 | 282 | 3.0 | 3.0 | 0.00 | 0.01 | 0.01 | 69 | 1017.9 |
| 20260906005832 | 68 | 273 | 5.0 | 6.0 | 0.00 | 0.01 | 0.01 | 68 | 1017.9 |
| 20260906005331 | 68 | 217 | 1.0 | 1.0 | 0.00 | 0.01 | 0.01 | 67 | 1017.9 |
| 20260906004830 | 68 | 300 | 5.0 | 6.0 | 0.00 | 0.01 | 0.01 | 67 | 1017.9 |
| 20260906004330 | 69 | 260 | 7.0 | 8.0 | 0.00 | 0.01 | 0.01 | 66 | 1017.9 |
| 20260906003825 | 69 | 259 | 4.0 | 5.0 | 0.00 | 0.01 | 0.01 | 65 | 1017.9 |
| 20260906003320 | 70 | 240 | 3.0 | 5.0 | 0.00 | 0.01 | 0.01 | 64 | 1018.2 |
| 20260906002816 | 70 | 302 | 2.0 | 2.0 | 0.00 | 0.01 | 0.01 | 61 | 1018.2 |
| 20260906002315 | 69 | 316 | 5.0 | 6.0 | 0.00 | 0.01 | 0.01 | 61 | 1017.9 |
| 20260906001811 | 70 | 304 | 3.0 | 3.0 | 0.00 | 0.01 | 0.01 | 62 | 1017.6 |
| 20260906001307 | 70 | 247 | 4.0 | 6.0 | 0.00 | 0.01 | 0.01 | 60 | 1017.6 |
| 20260906000807 | 71 | 270 | 3.0 | 3.0 | 0.00 | 0.01 | 0.01 | 60 | 1017.9 |
| 20260906000303 | 71 | 276 | 4.0 | 6.0 | 0.00 | 0.01 | 0.01 | 58 | 1017.9 |
| 20260905235756 | 72 | 332 | 2.0 | 2.0 | 0.00 | 0.01 | 0.01 | 57 | 1017.6 |
| 20260905235256 | 71 | 265 | 3.0 | 5.0 | 0.00 | 0.01 | 0.01 | 58 | 1017.9 |
| 20260905234751 | 70 | 303 | 3.0 | 5.0 | 0.00 | 0.01 | 0.01 | 60 | 1017.6 |
| 20260905234246 | 71 | 275 | 4.0 | 8.0 | 0.00 | 0.01 | 0.01 | 61 | 1017.9 |
| 20260905233742 | 71 | 251 | 2.0 | 2.0 | 0.00 | 0.01 | 0.01 | 60 | 1017.9 |
| 20260905233241 | 71 | 359 | 5.0 | 7.0 | 0.00 | 0.01 | 0.01 | 58 | 1017.9 |
| 20260905232735 | 71 | 9 | 5.0 | 6.0 | 0.00 | 0.01 | 0.01 | 60 | 1017.9 |
| 20260905232232 | 71 | 262 | 3.0 | 3.0 | 0.00 | 0.01 | 0.01 | 61 | 1017.9 |
| 20260905231727 | 71 | 215 | 0.0 | 1.0 | 0.00 | 0.01 | 0.01 | 60 | 1017.9 |
| 20260905231223 | 72 | 268 | 6.0 | 7.0 | 0.00 | 0.01 | 0.01 | 59 | 1018.2 |
| 20260905230719 | 73 | 297 | 3.0 | 5.0 | 0.00 | 0.01 | 0.01 | 57 | 1017.9 |
| 20260905230217 | 73 | 181 | 3.0 | 3.0 | 0.00 | 0.01 | 0.01 | 59 | 1018.2 |
| 20260905225716 | 74 | 208 | 2.0 | 2.0 | 0.00 | 0.01 | 0.01 | 55 | 1018.2 |
| 20260905225212 | 72 | 211 | 0.0 | 0.0 | 0.00 | 0.01 | 0.01 | 58 | 1018.2 |
| 20260905224711 | 71 | 243 | 1.0 | 1.0 | 0.00 | 0.01 | 0.01 | 62 | 1018.2 |
| 20260905224206 | 71 | 232 | 3.0 | 3.0 | 0.00 | 0.01 | 0.01 | 60 | 1018.6 |
| 20260905223702 | 71 | 238 | 3.0 | 3.0 | 0.00 | 0.01 | 0.01 | 60 | 1018.6 |
| 20260905223159 | 70 | 299 | 2.0 | 2.0 | 0.00 | 0.01 | 0.01 | 61 | 1018.2 |
| 20260905222654 | 71 | 283 | 4.0 | 6.0 | 0.00 | 0.01 | 0.01 | 64 | 1018.2 |
| 20260905222154 | 71 | 329 | 6.0 | 7.0 | 0.00 | 0.01 | 0.01 | 60 | 1018.6 |
| 20260905221649 | 72 | 207 | 3.0 | 3.0 | 0.00 | 0.01 | 0.01 | 61 | 1018.6 |
| 20260905221146 | 71 | 203 | 3.0 | 7.0 | 0.00 | 0.01 | 0.01 | 61 | 1018.6 |
| 20260905220647 | 71 | 213 | 4.0 | 5.0 | 0.00 | 0.01 | 0.01 | 62 | 1018.6 |
| 20260905220143 | 69 | 255 | 2.0 | 3.0 | 0.00 | 0.01 | 0.01 | 62 | 1018.6 |
| 20260905215642 | 70 | 186 | 3.0 | 3.0 | 0.00 | 0.01 | 0.01 | 63 | 1018.6 |
| 20260905215138 | 71 | 21 | 2.0 | 3.0 | 0.00 | 0.01 | 0.01 | 60 | 1018.6 |
| 20260905214634 | 71 | 153 | 3.0 | 5.0 | 0.00 | 0.01 | 0.01 | 61 | 1018.6 |
| 20260905214129 | 71 | 298 | 3.0 | 3.0 | 0.00 | 0.01 | 0.01 | 58 | 1018.6 |
| 20260905213625 | 71 | 197 | 0.0 | 1.0 | 0.00 | 0.01 | 0.01 | 60 | 1018.6 |
| 20260905213119 | 70 | 219 | 0.0 | 0.0 | 0.00 | 0.01 | 0.01 | 62 | 1018.6 |
| 20260905212614 | 70 | 207 | 2.0 | 2.0 | 0.00 | 0.01 | 0.01 | 63 | 1018.6 |
| 20260905212114 | 72 | 266 | 1.0 | 2.0 | 0.00 | 0.01 | 0.01 | 60 | 1018.9 |
| 20260905211609 | 72 | 270 | 2.0 | 2.0 | 0.00 | 0.01 | 0.01 | 61 | 1018.9 |
| 20260905211104 | 71 | 215 | 0.0 | 0.0 | 0.00 | 0.01 | 0.01 | 60 | 1018.6 |
| 20260905210601 | 71 | 217 | 0.0 | 0.0 | 0.00 | 0.01 | 0.01 | 63 | 1018.9 |
| 20260905210055 | 70 | 52 | 0.0 | 0.0 | 0.00 | 0.01 | 0.01 | 62 | 1018.6 |
| 20260905205554 | 70 | 314 | 7.0 | 8.0 | 0.00 | 0.01 | 0.01 | 63 | 1018.9 |
| 20260905205054 | 74 | 244 | 1.0 | 2.0 | 0.00 | 0.01 | 0.01 | 61 | 1018.9 |
| 20260905204549 | 75 | 159 | 2.0 | 3.0 | 0.00 | 0.01 | 0.01 | 58 | 1019.3 |
| 20260905204044 | 75 | 245 | 0.0 | 1.0 | 0.00 | 0.01 | 0.01 | 56 | 1019.3 |
| 20260905203538 | 76 | 110 | 1.0 | 2.0 | 0.00 | 0.01 | 0.01 | 55 | 1018.9 |
| 20260905203034 | 75 | 206 | 0.0 | 1.0 | 0.00 | 0.01 | 0.01 | 57 | 1019.3 |
| 20260905202529 | 73 | 216 | 0.0 | 0.0 | 0.00 | 0.01 | 0.01 | 58 | 1018.9 |
| 20260905202024 | 73 | 239 | 1.0 | 1.0 | 0.00 | 0.01 | 0.01 | 58 | 1018.9 |
| 20260905201520 | 71 | 208 | 0.0 | 1.0 | 0.00 | 0.01 | 0.01 | 61 | 1019.3 |
| 20260905201019 | 70 | 206 | 0.0 | 1.0 | 0.00 | 0.01 | 0.01 | 63 | 1019.3 |
| 20260905200515 | 70 | 231 | 2.0 | 3.0 | 0.00 | 0.01 | 0.01 | 63 | 1019.3 |
| 20260905200014 | 68 | 199 | 1.0 | 2.0 | 0.00 | 0.01 | 0.01 | 67 | 1018.9 |
| 20260905195509 | 68 | 175 | 1.0 | 2.0 | 0.00 | 0.01 | 0.01 | 69 | 1019.3 |
| 20260905195004 | 68 | 229 | 1.0 | 1.0 | 0.00 | 0.01 | 0.01 | 68 | 1019.3 |
| 20260905194503 | 68 | 208 | 2.0 | 2.0 | 0.00 | 0.01 | 0.01 | 68 | 1019.3 |
| 20260905193957 | 67 | 211 | 1.0 | 1.0 | 0.00 | 0.01 | 0.01 | 69 | 1019.6 |
| 20260905193452 | 68 | 192 | 0.0 | 1.0 | 0.00 | 0.01 | 0.01 | 71 | 1019.6 |
| 20260905192948 | 67 | 249 | 1.0 | 2.0 | 0.00 | 0.01 | 0.01 | 71 | 1019.6 |
| 20260905192442 | 67 | 212 | 0.0 | 0.0 | 0.00 | 0.01 | 0.01 | 73 | 1019.6 |
| 20260905191938 | 68 | 237 | 1.0 | 1.0 | 0.00 | 0.01 | 0.01 | 71 | 1019.6 |
| 20260905191438 | 66 | 210 | 1.0 | 1.0 | 0.00 | 0.01 | 0.01 | 73 | 1019.6 |
| 20260905190937 | 65 | 213 | 0.0 | 1.0 | 0.00 | 0.01 | 0.01 | 76 | 1019.6 |
| 20260905190434 | 65 | 244 | 2.0 | 3.0 | 0.00 | 0.01 | 0.01 | 76 | 1019.6 |
| 20260905185934 | 64 | 204 | 0.0 | 1.0 | 0.00 | 0.01 | 0.01 | 77 | 1019.9 |
| 20260905185429 | 65 | 301 | 3.0 | 5.0 | 0.00 | 0.01 | 0.01 | 77 | 1019.6 |
| 20260905184927 | 65 | 269 | 2.0 | 2.0 | 0.00 | 0.01 | 0.01 | 76 | 1019.6 |
| 20260905184422 | 65 | 338 | 1.0 | 1.0 | 0.00 | 0.01 | 0.01 | 77 | 1019.9 |
| 20260905183921 | 65 | 278 | 2.0 | 2.0 | 0.00 | 0.01 | 0.01 | 78 | 1019.9 |
| 20260905183416 | 64 | 161 | 1.0 | 2.0 | 0.00 | 0.01 | 0.01 | 79 | 1019.6 |
| 20260905182911 | 64 | 233 | 0.0 | 0.0 | 0.00 | 0.01 | 0.01 | 80 | 1019.6 |
| 20260905182410 | 63 | 239 | 0.0 | 0.0 | 0.00 | 0.01 | 0.01 | 81 | 1019.6 |
| 20260905181906 | 62 | 246 | 0.0 | 0.0 | 0.00 | 0.01 | 0.01 | 83 | 1019.6 |
| 20260905181401 | 62 | 242 | 0.0 | 0.0 | 0.00 | 0.01 | 0.01 | 83 | 1019.9 |
| 20260905180900 | 62 | 219 | 0.0 | 0.0 | 0.00 | 0.01 | 0.01 | 83 | 1019.9 |
| 20260905180355 | 62 | 198 | 0.0 | 0.0 | 0.00 | 0.01 | 0.01 | 85 | 1019.6 |
| 20260905175850 | 61 | 204 | 0.0 | 0.0 | 0.00 | 0.01 | 0.01 | 86 | 1019.9 |
| 20260905175349 | 61 | 201 | 0.0 | 0.0 | 0.00 | 0.01 | 0.01 | 87 | 1019.9 |
| 20260905174850 | 61 | 189 | 0.0 | 0.0 | 0.00 | 0.01 | 0.01 | 88 | 1019.9 |
| 20260905174345 | 60 | 212 | 0.0 | 0.0 | 0.00 | 0.01 | 0.01 | 89 | 1019.9 |
| 20260905173841 | 60 | 215 | 0.0 | 0.0 | 0.00 | 0.01 | 0.01 | 89 | 1019.9 |
| 20260905173338 | 60 | 209 | 0.0 | 0.0 | 0.00 | 0.01 | 0.01 | 89 | 1019.9 |
| 20260905172838 | 60 | 207 | 0.0 | 0.0 | 0.00 | 0.01 | 0.01 | 89 | 1019.9 |
| 20260905172335 | 59 | 217 | 0.0 | 0.0 | 0.00 | 0.01 | 0.01 | 89 | 1019.9 |
| 20260905171832 | 59 | 219 | 0.0 | 0.0 | 0.00 | 0.01 | 0.01 | 90 | 1019.9 |
| 20260905171329 | 59 | 215 | 0.0 | 0.0 | 0.00 | 0.01 | 0.01 | 90 | 1019.9 |
| 20260905170825 | 59 | 216 | 0.0 | 0.0 | 0.00 | 0.01 | 0.01 | 91 | 1019.9 |
| 20260905170320 | 60 | 205 | 0.0 | 0.0 | 0.00 | 0.01 | 0.01 | 91 | 1019.9 |
| 20260905165819 | 59 | 220 | 0.0 | 0.0 | 0.00 | 0.01 | 0.01 | 92 | 1019.6 |